Time;durP1;ratioP1;P1;durP2;ratioP2;P2;SDS_P1;SDS_P2;PMS_P1;PMS_P2;Temp;Humidity;BMP_temperature;BMP_pressure;BME280_temperature;BME280_humidity;BME280_pressure;Samples;Min_cycle;Max_cycle;Signal;HPM_P1;HPM_P2
2021/01/07 00:01:34;;;;;;;10.75;8.33;;;;;;;1.69;91.93;101253.23;1735968;82;21248;-35
2021/01/07 00:04:02;;;;;;;13.32;7.70;;;;;;;1.65;91.94;101247.19;1735887;82;21538;-35
2021/01/07 00:06:30;;;;;;;11.73;7.55;;;;;;;1.63;91.98;101247.52;1736002;82;20884;-36
2021/01/07 00:08:59;;;;;;;13.98;8.70;;;;;;;1.63;92.08;101247.52;1735859;82;20912;-35
2021/01/07 00:11:28;;;;;;;11.00;7.35;;;;;;;1.62;92.15;101241.11;1735948;82;20940;-36
2021/01/07 00:13:56;;;;;;;12.28;7.87;;;;;;;1.65;92.19;101235.70;1735965;82;21213;-36
2021/01/07 00:16:26;;;;;;;11.18;7.67;;;;;;;1.66;92.17;101233.61;1735906;82;21008;-35
2021/01/07 00:18:54;;;;;;;10.28;7.75;;;;;;;1.68;92.21;101225.97;1735899;82;20975;-35
2021/01/07 00:21:23;;;;;;;11.22;8.23;;;;;;;1.69;92.16;101221.33;1735958;82;21351;-35
2021/01/07 00:23:51;;;;;;;13.78;8.35;;;;;;;1.65;92.18;101222.05;1736004;82;20913;-36
2021/01/07 00:26:20;;;;;;;10.82;7.37;;;;;;;1.63;92.25;101216.89;1735981;82;21354;-35
2021/01/07 00:28:48;;;;;;;11.08;8.68;;;;;;;1.65;92.30;101209.29;1735946;81;21004;-36
2021/01/07 00:31:16;;;;;;;11.43;8.50;;;;;;;1.66;92.33;101214.45;1735906;82;20984;-35
2021/01/07 00:33:44;;;;;;;13.55;8.30;;;;;;;1.65;92.36;101219.11;1735999;82;20932;-36
2021/01/07 00:36:17;;;;;;;11.35;7.92;;;;;;;1.67;92.37;101212.36;1735901;82;20913;-35
2021/01/07 00:38:45;;;;;;;11.05;7.85;;;;;;;1.67;92.43;101214.91;1735977;82;21377;-36
2021/01/07 00:41:18;;;;;;;11.22;7.78;;;;;;;1.68;92.53;101207.71;1735868;82;21007;-35
2021/01/07 00:43:49;;;;;;;14.83;8.48;;;;;;;1.71;92.63;101195.03;1735970;82;21004;-36
2021/01/07 00:46:17;;;;;;;11.08;8.25;;;;;;;1.75;92.59;101194.69;1735835;82;20956;-35
2021/01/07 00:48:47;;;;;;;14.87;8.85;;;;;;;1.78;92.58;101188.83;1735938;82;20984;-36
2021/01/07 00:51:16;;;;;;;12.70;9.03;;;;;;;1.76;92.57;101187.48;1735897;82;21341;-36
2021/01/07 00:53:46;;;;;;;13.13;9.00;;;;;;;1.76;92.63;101189.19;1736022;82;21542;-36
2021/01/07 00:56:18;;;;;;;14.53;9.35;;;;;;;1.78;92.66;101195.20;1735846;82;20916;-36
2021/01/07 00:58:47;;;;;;;15.40;9.60;;;;;;;1.80;92.67;101196.11;1735919;82;20984;-36
2021/01/07 01:01:16;;;;;;;16.02;9.55;;;;;;;1.82;92.69;101197.03;1735982;82;21029;-35
2021/01/07 01:03:44;;;;;;;14.65;8.80;;;;;;;1.85;92.71;101189.45;1735967;82;21380;-36
2021/01/07 01:06:13;;;;;;;11.88;7.75;;;;;;;1.89;92.69;101192.55;1735768;82;20924;-36
2021/01/07 01:08:42;;;;;;;14.98;9.15;;;;;;;1.92;92.70;101200.33;1735906;82;21024;-36
2021/01/07 01:11:11;;;;;;;17.17;8.50;;;;;;;1.93;92.68;101191.84;1735903;82;20928;-36
2021/01/07 01:13:40;;;;;;;13.38;8.55;;;;;;;1.96;92.63;101188.48;1736002;82;20932;-36
2021/01/07 01:16:09;;;;;;;15.65;8.83;;;;;;;1.95;92.58;101188.91;1735838;82;22341;-36
2021/01/07 01:18:37;;;;;;;13.65;8.63;;;;;;;1.93;92.60;101185.45;1735851;82;20987;-37
2021/01/07 01:21:07;;;;;;;14.73;9.08;;;;;;;1.93;92.62;101183.30;1735904;82;20988;-35
2021/01/07 01:23:35;;;;;;;13.83;8.88;;;;;;;1.93;92.63;101181.63;1735958;82;20940;-36
2021/01/07 01:26:03;;;;;;;25.05;14.38;;;;;;;1.93;92.64;101183.30;1735828;82;20964;-35
2021/01/07 01:28:31;;;;;;;18.80;11.75;;;;;;;1.93;92.71;101185.85;1735961;81;21448;-34
2021/01/07 01:31:00;;;;;;;20.50;11.38;;;;;;;1.93;92.78;101182.90;1743360;81;20987;-35
2021/01/07 01:33:28;;;;;;;20.75;11.95;;;;;;;1.95;92.81;101177.42;1744066;82;21438;-36
2021/01/07 01:35:57;;;;;;;20.70;11.55;;;;;;;1.96;92.80;101186.81;1743925;82;20955;-36
2021/01/07 01:38:26;;;;;;;31.40;13.95;;;;;;;1.96;92.81;101182.98;1744085;82;20935;-36
2021/01/07 01:41:01;;;;;;;28.90;15.93;;;;;;;1.96;92.83;101175.33;1744020;82;21207;-36
2021/01/07 01:43:29;;;;;;;18.17;10.07;;;;;;;1.97;92.84;101173.22;1744350;82;21308;-35
2021/01/07 01:45:58;;;;;;;24.30;13.50;;;;;;;1.96;92.81;101166.39;1743982;82;21645;-34
2021/01/07 01:48:26;;;;;;;20.80;12.55;;;;;;;1.97;92.83;101163.01;1744001;82;20987;-35
2021/01/07 01:50:55;;;;;;;23.67;11.78;;;;;;;1.95;92.91;101161.22;1744007;82;21010;-36
2021/01/07 01:53:23;;;;;;;26.68;14.70;;;;;;;1.95;92.91;101156.99;1744152;82;21581;-35
2021/01/07 01:55:52;;;;;;;22.02;12.35;;;;;;;1.96;92.94;101154.02;1743955;82;20884;-36
2021/01/07 01:58:21;;;;;;;26.27;13.28;;;;;;;1.97;92.98;101154.07;1744088;82;20985;-35
2021/01/07 02:00:49;;;;;;;27.52;13.08;;;;;;;1.99;92.98;101160.08;1743905;82;20920;-35
2021/01/07 02:03:18;;;;;;;29.00;13.15;;;;;;;2.01;93.02;101169.05;1744163;82;21007;-35
2021/01/07 02:05:46;;;;;;;24.70;12.82;;;;;;;2.03;93.02;101167.83;1744165;81;21141;-37
2021/01/07 02:08:14;;;;;;;26.10;13.88;;;;;;;2.06;93.05;101171.74;1743959;81;20991;-36
2021/01/07 02:10:43;;;;;;;28.52;13.55;;;;;;;2.06;93.06;101160.25;1743934;82;21036;-37
2021/01/07 02:13:12;;;;;;;25.00;12.58;;;;;;;2.07;93.06;101153.03;1744036;81;20941;-35
2021/01/07 02:15:51;;;;;;;25.42;12.78;;;;;;;2.09;93.07;101151.39;1721679;81;10000650;-37
2021/01/07 02:18:19;;;;;;;24.07;13.32;;;;;;;2.12;92.92;101147.64;1739737;82;20948;-37
2021/01/07 02:20:47;;;;;;;29.00;12.43;;;;;;;2.13;93.02;101137.88;1744083;82;21202;-35
2021/01/07 02:23:16;;;;;;;25.68;14.15;;;;;;;2.13;93.14;101126.38;1743888;82;20952;-36
2021/01/07 02:25:44;;;;;;;21.65;12.70;;;;;;;2.14;93.16;101122.60;1744017;82;21015;-36
2021/01/07 02:28:12;;;;;;;31.07;14.47;;;;;;;2.18;93.19;101106.07;1743993;82;20920;-36
2021/01/07 02:30:40;;;;;;;25.80;13.35;;;;;;;2.18;93.23;101107.34;1747934;82;20924;-36
2021/01/07 02:33:09;;;;;;;26.40;12.85;;;;;;;2.20;93.30;101106.58;1749852;82;22324;-37
2021/01/07 02:35:40;;;;;;;29.45;13.00;;;;;;;2.23;93.33;101093.00;1749832;82;20998;-34
2021/01/07 02:38:08;;;;;;;25.70;12.93;;;;;;;2.26;93.29;101091.41;1749947;82;21477;-35
2021/01/07 02:40:36;;;;;;;27.20;14.30;;;;;;;2.25;93.41;101087.12;1749718;82;20999;-35
2021/01/07 02:43:04;;;;;;;26.80;13.85;;;;;;;2.29;93.50;101077.42;1749881;82;20987;-38
2021/01/07 02:45:33;;;;;;;27.80;15.00;;;;;;;2.27;93.61;101084.19;1749821;82;21435;-36
2021/01/07 02:48:02;;;;;;;29.42;14.43;;;;;;;2.27;93.72;101084.19;1749713;82;20939;-36
2021/01/07 02:50:34;;;;;;;26.97;13.98;;;;;;;2.30;93.76;101086.81;1749831;82;20880;-37
2021/01/07 02:53:02;;;;;;;28.15;14.43;;;;;;;2.29;93.83;101088.08;1749799;82;21592;-37
2021/01/07 02:55:30;;;;;;;26.15;12.88;;;;;;;2.31;93.93;101087.70;1749805;82;20912;-37
2021/01/07 02:58:00;;;;;;;21.82;12.82;;;;;;;2.34;93.93;101080.11;1749874;82;21315;-35
2021/01/07 03:00:28;;;;;;;26.00;14.38;;;;;;;2.38;93.93;101075.92;1749847;82;20892;-35
2021/01/07 03:02:57;;;;;;;24.07;12.63;;;;;;;2.36;93.98;101067.35;1749777;82;20979;-36
2021/01/07 03:05:25;;;;;;;28.98;15.65;;;;;;;2.35;94.02;101064.34;1749787;82;21011;-36
2021/01/07 03:07:53;;;;;;;27.30;13.53;;;;;;;2.36;94.03;101064.80;1749824;82;21035;-38
2021/01/07 03:10:22;;;;;;;29.02;14.05;;;;;;;2.38;94.03;101065.70;1749815;82;22567;-36
2021/01/07 03:12:52;;;;;;;25.08;14.30;;;;;;;2.36;94.04;101077.57;1749838;82;20924;-35
2021/01/07 03:15:21;;;;;;;30.20;15.72;;;;;;;2.37;94.08;101086.97;1749890;82;21470;-36
2021/01/07 03:17:52;;;;;;;30.65;15.03;;;;;;;2.38;94.04;101085.74;1749981;82;20939;-36
2021/01/07 03:20:22;;;;;;;28.57;15.15;;;;;;;2.39;94.02;101079.80;1750031;82;20920;-36
2021/01/07 03:22:50;;;;;;;25.97;13.72;;;;;;;2.37;94.00;101074.19;1749970;82;22231;-36
2021/01/07 03:25:18;;;;;;;28.15;13.58;;;;;;;2.33;93.96;101063.45;1749986;82;20987;-38
2021/01/07 03:27:46;;;;;;;25.80;14.47;;;;;;;2.29;93.98;101068.91;1749987;82;20979;-36
2021/01/07 03:30:16;;;;;;;28.83;13.95;;;;;;;2.25;94.01;101064.13;1745427;82;21518;-36
2021/01/07 03:32:45;;;;;;;31.37;15.38;;;;;;;2.23;94.08;101057.23;1736047;81;20896;-35
2021/01/07 03:35:14;;;;;;;24.47;13.62;;;;;;;2.24;94.07;101057.69;1735950;82;21282;-37
2021/01/07 03:37:42;;;;;;;23.45;12.60;;;;;;;2.21;94.10;101055.94;1735839;81;20940;-36
2021/01/07 03:40:11;;;;;;;25.10;13.83;;;;;;;2.16;94.12;101053.68;1735953;82;21110;-35
2021/01/07 03:42:40;;;;;;;20.75;12.33;;;;;;;2.16;94.17;101060.06;1735993;82;20924;-37
2021/01/07 03:45:09;;;;;;;25.02;13.28;;;;;;;2.15;94.20;101048.13;1735954;82;20921;-37
2021/01/07 03:47:37;;;;;;;25.72;12.98;;;;;;;2.14;94.20;101043.81;1736007;82;21376;-36
2021/01/07 03:50:08;;;;;;;21.25;12.23;;;;;;;2.13;94.23;101048.47;1735899;81;21172;-36
2021/01/07 03:52:36;;;;;;;23.07;12.18;;;;;;;2.14;94.25;101035.75;1736031;82;21505;-36
2021/01/07 03:55:06;;;;;;;26.52;12.55;;;;;;;2.16;94.17;101033.25;1735895;82;21037;-35
2021/01/07 03:57:34;;;;;;;23.92;12.28;;;;;;;2.14;94.25;101022.09;1736088;82;21522;-38
2021/01/07 04:00:05;;;;;;;20.75;11.10;;;;;;;2.09;94.27;101022.00;1735942;82;21200;-37
2021/01/07 04:02:33;;;;;;;26.77;12.00;;;;;;;2.10;94.29;101012.63;1735874;82;20967;-36
2021/01/07 04:05:03;;;;;;;29.63;11.73;;;;;;;2.15;94.29;101008.53;1735906;82;21016;-36
2021/01/07 04:07:31;;;;;;;27.42;11.70;;;;;;;2.14;94.34;101010.59;1735958;82;20920;-36
2021/01/07 04:10:00;;;;;;;20.85;11.25;;;;;;;2.11;94.35;101004.14;1735847;82;20937;-36
2021/01/07 04:12:29;;;;;;;26.77;12.98;;;;;;;2.10;94.43;101001.13;1735948;82;21144;-35
2021/01/07 04:14:59;;;;;;;19.27;10.95;;;;;;;2.06;94.49;101004.05;1735549;82;20952;-34
2021/01/07 04:17:27;;;;;;;23.50;11.25;;;;;;;2.07;94.54;101004.50;1735955;81;20948;-35
2021/01/07 04:19:55;;;;;;;21.35;11.55;;;;;;;2.08;94.53;101002.39;1735811;82;21003;-34
2021/01/07 04:22:23;;;;;;;19.85;11.40;;;;;;;2.08;94.54;100998.95;1735934;82;20996;-34
2021/01/07 04:24:51;;;;;;;21.12;12.60;;;;;;;2.06;94.58;100992.95;1735980;82;21486;-36
2021/01/07 04:27:20;;;;;;;18.35;11.38;;;;;;;2.06;94.59;100995.11;1735914;82;20944;-35
2021/01/07 04:29:50;;;;;;;17.30;11.05;;;;;;;2.06;94.55;100998.06;1735825;82;20979;-35
2021/01/07 04:32:18;;;;;;;25.68;13.08;;;;;;;2.04;94.50;100994.20;1749886;81;21517;-36
2021/01/07 04:34:46;;;;;;;18.27;11.38;;;;;;;1.99;94.50;100994.47;1749969;82;20939;-34
2021/01/07 04:37:15;;;;;;;21.23;12.63;;;;;;;1.97;94.49;100988.08;1749953;82;21980;-35
2021/01/07 04:39:46;;;;;;;18.48;11.93;;;;;;;1.94;94.45;100989.27;1749817;82;21042;-35
2021/01/07 04:42:14;;;;;;;23.30;12.03;;;;;;;1.92;94.48;100981.98;1749913;82;21034;-35
2021/01/07 04:44:43;;;;;;;16.57;10.65;;;;;;;1.89;94.54;100978.05;1749849;82;21032;-35
2021/01/07 04:47:13;;;;;;;19.05;10.45;;;;;;;1.87;94.54;100980.98;1749939;82;20932;-35
2021/01/07 04:49:43;;;;;;;21.45;11.65;;;;;;;1.85;94.56;100981.36;1749938;82;20954;-36
2021/01/07 04:52:11;;;;;;;21.30;10.88;;;;;;;1.85;94.59;100982.63;1749899;82;21042;-36
2021/01/07 04:54:40;;;;;;;16.82;11.33;;;;;;;1.82;94.62;100979.61;1750028;82;20927;-37
2021/01/07 04:57:08;;;;;;;14.98;9.55;;;;;;;1.83;94.64;100981.34;1749874;82;20967;-34
2021/01/07 04:59:36;;;;;;;17.90;10.80;;;;;;;1.85;94.60;100979.69;1749847;82;20944;-34
2021/01/07 05:02:05;;;;;;;17.92;11.00;;;;;;;1.82;94.56;100982.56;1749905;82;22447;-35
2021/01/07 05:04:47;;;;;;;20.95;9.98;;;;;;;1.81;94.57;100973.17;1749890;82;20979;-37
2021/01/07 05:07:19;;;;;;;12.40;9.05;;;;;;;1.79;94.58;100973.55;1749832;82;20990;-36
2021/01/07 05:09:50;;;;;;;16.27;10.30;;;;;;;1.78;94.61;100961.21;1749807;82;21509;-36
2021/01/07 05:12:18;;;;;;;11.65;8.98;;;;;;;1.79;94.61;100964.61;1748453;82;20935;-36
2021/01/07 05:14:47;;;;;;;15.08;9.00;;;;;;;1.79;94.63;100963.34;1749856;82;21493;-35
2021/01/07 05:17:16;;;;;;;14.87;8.05;;;;;;;1.78;94.66;100952.67;1749843;82;21002;-36
2021/01/07 05:19:44;;;;;;;9.95;7.95;;;;;;;1.78;94.65;100951.00;1749893;82;21043;-37
2021/01/07 05:22:13;;;;;;;7.75;6.20;;;;;;;1.79;94.59;100951.84;1749866;82;21584;-35
2021/01/07 05:24:41;;;;;;;9.45;7.40;;;;;;;1.78;94.58;100946.29;1749927;82;20959;-37
2021/01/07 05:27:16;;;;;;;8.83;6.22;;;;;;;1.75;94.58;100948.77;1749884;82;21480;-35
2021/01/07 05:29:45;;;;;;;7.83;6.10;;;;;;;1.72;94.59;100944.03;1750026;82;21129;-35
2021/01/07 05:32:14;;;;;;;6.62;5.60;;;;;;;1.72;94.56;100945.31;1738384;81;21612;-36
2021/01/07 05:34:49;;;;;;;6.30;5.40;;;;;;;1.71;94.59;100943.98;1735893;82;20984;-36
2021/01/07 05:37:19;;;;;;;5.72;5.12;;;;;;;1.69;94.62;100945.64;1736121;82;21514;-38
2021/01/07 05:39:48;;;;;;;10.53;5.85;;;;;;;1.70;94.61;100945.69;1735804;82;21382;-36
2021/01/07 05:42:16;;;;;;;7.22;6.53;;;;;;;1.68;94.64;100939.69;1735874;82;21573;-36
2021/01/07 05:44:48;;;;;;;8.58;6.62;;;;;;;1.67;94.60;100940.51;1735922;82;20936;-35
2021/01/07 05:47:28;;;;;;;8.93;6.42;;;;;;;1.66;94.59;100934.95;1735886;82;21000;-36
2021/01/07 05:49:56;;;;;;;6.72;5.28;;;;;;;1.66;94.52;100925.14;1729786;82;20971;-36
2021/01/07 05:52:30;;;;;;;5.28;4.75;;;;;;;1.62;94.53;100925.46;1735792;82;21202;-35
2021/01/07 05:55:00;;;;;;;8.40;5.20;;;;;;;1.59;94.53;100915.18;1736060;82;20932;-37
2021/01/07 05:57:29;;;;;;;7.87;6.03;;;;;;;1.55;94.50;100910.83;1735865;82;20980;-36
2021/01/07 05:59:57;;;;;;;7.30;4.83;;;;;;;1.52;94.52;100912.91;1735771;82;21003;-36
2021/01/07 06:02:26;;;;;;;7.58;5.55;;;;;;;1.51;94.54;100912.42;1735881;82;20960;-37
2021/01/07 06:04:54;;;;;;;6.65;4.80;;;;;;;1.50;94.55;100916.23;1735852;82;21212;-37
2021/01/07 06:07:23;;;;;;;5.10;4.60;;;;;;;1.49;94.57;100924.70;1715204;82;20952;-38
2021/01/07 06:09:51;;;;;;;6.42;4.65;;;;;;;1.49;94.55;100929.38;1715294;82;20991;-36
2021/01/07 06:12:19;;;;;;;5.42;4.67;;;;;;;1.47;94.56;100923.38;1735857;82;20920;-35
2021/01/07 06:14:47;;;;;;;5.37;4.80;;;;;;;1.47;94.59;100917.00;1735910;82;21004;-37
2021/01/07 06:17:15;;;;;;;7.47;3.90;;;;;;;1.49;94.62;100922.16;1735808;82;21201;-37
2021/01/07 06:19:45;;;;;;;6.17;4.05;;;;;;;1.50;94.64;100924.73;1715299;82;21047;-38
2021/01/07 06:22:15;;;;;;;4.53;4.12;;;;;;;1.54;94.61;100915.48;1735833;82;21004;-39
2021/01/07 06:24:44;;;;;;;9.08;4.83;;;;;;;1.54;94.56;100915.48;1735857;82;20917;-35
2021/01/07 06:27:29;;;;;;;13.75;4.80;;;;;;;1.53;94.58;100913.75;1735790;82;21047;-36
2021/01/07 06:30:10;;;;;;;5.17;4.00;;;;;;;1.52;94.61;100914.18;1735795;82;21271;-35
2021/01/07 06:32:39;;;;;;;4.80;3.72;;;;;;;1.56;94.61;100911.27;1735650;81;20944;-35
2021/01/07 06:35:12;;;;;;;12.25;4.83;;;;;;;1.55;94.56;100919.75;1735738;82;20983;-36
2021/01/07 06:37:43;;;;;;;5.80;4.60;;;;;;;1.55;94.55;100910.83;1735962;82;21450;-35
2021/01/07 06:40:13;;;;;;;6.20;4.60;;;;;;;1.55;94.56;100909.55;1735550;82;20880;-36
2021/01/07 06:42:50;;;;;;;7.90;5.45;;;;;;;1.54;94.51;100910.38;1736012;82;21343;-38
2021/01/07 06:45:26;;;;;;;7.83;5.70;;;;;;;1.52;94.47;100901.81;1735534;82;21644;-37
2021/01/07 06:47:55;;;;;;;8.43;5.72;;;;;;;1.52;94.48;100904.37;1735819;82;21003;-36
2021/01/07 06:50:24;;;;;;;8.40;6.40;;;;;;;1.51;94.53;100902.22;1735805;82;21624;-39
2021/01/07 06:52:53;;;;;;;7.62;5.97;;;;;;;1.53;94.55;100906.09;1691848;82;20928;-36
2021/01/07 06:55:21;;;;;;;11.65;6.65;;;;;;;1.55;94.59;100900.62;1715539;82;21546;-34
2021/01/07 06:57:54;;;;;;;11.78;6.12;;;;;;;1.58;94.59;100898.14;1735944;82;21144;-36
2021/01/07 07:00:24;;;;;;;8.25;5.97;;;;;;;1.60;94.64;100890.11;1735915;82;21063;-37
2021/01/07 07:03:05;;;;;;;13.40;7.37;;;;;;;1.63;94.70;100888.05;1736055;81;21462;-37
2021/01/07 07:05:37;;;;;;;12.90;6.92;;;;;;;1.67;94.70;100880.92;1735624;82;20980;-37
2021/01/07 07:08:11;;;;;;;10.63;7.25;;;;;;;1.72;94.71;100870.41;1735987;82;21377;-35
2021/01/07 07:10:53;;;;;;;15.13;8.10;;;;;;;1.77;94.75;100870.13;1735904;82;21450;-36
2021/01/07 07:13:25;;;;;;;12.90;7.67;;;;;;;1.80;94.78;100874.03;1736002;82;20944;-36
2021/01/07 07:15:53;;;;;;;12.43;7.53;;;;;;;1.86;94.84;100869.47;1735905;82;21043;-36
2021/01/07 07:18:34;;;;;;;12.90;7.53;;;;;;;1.91;94.79;100870.46;1736078;82;20939;-36
2021/01/07 07:21:15;;;;;;;12.68;8.33;;;;;;;1.94;94.77;100875.64;1735924;82;21286;-38
2021/01/07 07:23:46;;;;;;;14.25;9.30;;;;;;;1.96;94.75;100868.00;1734734;82;21015;-36
2021/01/07 07:26:33;;;;;;;17.50;8.40;;;;;;;1.99;94.77;100870.22;1735866;82;21003;-37
2021/01/07 07:29:10;;;;;;;12.70;8.28;;;;;;;2.04;94.78;100873.29;1735405;82;21385;-35
2021/01/07 07:31:44;;;;;;;15.53;8.95;;;;;;;2.07;94.77;100861.86;1735882;82;21408;-35
2021/01/07 07:34:16;;;;;;;14.45;8.80;;;;;;;2.12;94.78;100857.31;1735971;81;21376;-36
2021/01/07 07:36:43;;;;;;;11.70;7.12;;;;;;;2.16;94.79;100858.27;1735986;82;21439;-39
2021/01/07 07:39:14;;;;;;;12.00;7.72;;;;;;;2.20;94.79;100860.05;1735883;82;20917;-37
2021/01/07 07:41:46;;;;;;;20.80;8.58;;;;;;;2.24;94.79;100867.34;1735930;82;21000;-36
2021/01/07 07:44:15;;;;;;;12.05;7.85;;;;;;;2.26;94.73;100862.73;1736047;82;21011;-36
2021/01/07 07:46:43;;;;;;;15.88;9.00;;;;;;;2.33;94.75;100859.03;1735958;82;21405;-38
2021/01/07 07:49:12;;;;;;;15.20;9.20;;;;;;;2.34;94.70;100850.53;1735897;82;20956;-38
2021/01/07 07:51:42;;;;;;;13.93;8.55;;;;;;;2.36;94.65;100853.98;1735859;82;21190;-36
2021/01/07 07:54:11;;;;;;;12.90;8.08;;;;;;;2.39;94.64;100845.98;1735930;82;20912;-38
2021/01/07 07:56:40;;;;;;;13.60;8.08;;;;;;;2.42;94.65;100851.16;1735986;82;20920;-37
2021/01/07 07:59:10;;;;;;;11.35;7.53;;;;;;;2.45;94.71;100842.70;1735997;82;21371;-37
2021/01/07 08:01:49;;;;;;;18.30;10.80;;;;;;;2.48;94.71;100837.66;1735906;82;20960;-36
2021/01/07 08:04:23;;;;;;;13.20;9.00;;;;;;;2.56;94.70;100838.66;1735978;82;21419;-37
2021/01/07 08:06:51;;;;;;;17.92;10.65;;;;;;;2.61;94.69;100832.78;1736057;82;20936;-38
2021/01/07 08:09:21;;;;;;;22.30;9.90;;;;;;;2.65;94.73;100832.00;1735973;82;20944;-38
2021/01/07 08:11:53;;;;;;;20.15;12.80;;;;;;;2.69;94.72;100828.27;1735867;82;22268;-38
2021/01/07 08:14:24;;;;;;;20.90;12.15;;;;;;;2.73;94.67;100818.98;1735885;82;21466;-37
2021/01/07 08:16:58;;;;;;;18.12;11.88;;;;;;;2.75;94.66;100821.15;1735910;82;20908;-37
2021/01/07 08:19:34;;;;;;;11.88;7.97;;;;;;;2.77;94.71;100820.76;1736075;82;21012;-37
2021/01/07 08:22:03;;;;;;;15.50;8.15;;;;;;;2.82;94.72;100825.97;1735926;82;21019;-37
2021/01/07 08:24:31;;;;;;;12.60;8.15;;;;;;;2.84;94.69;100822.59;1736023;81;21480;-35
2021/01/07 08:27:12;;;;;;;14.30;8.18;;;;;;;2.86;94.70;100818.37;1735827;81;20944;-36
2021/01/07 08:29:40;;;;;;;15.83;9.68;;;;;;;2.85;94.67;100819.20;1735885;82;20976;-36
2021/01/07 08:32:11;;;;;;;11.55;8.25;;;;;;;2.88;94.67;100814.14;1736162;81;20941;-36
2021/01/07 08:34:38;;;;;;;13.45;10.03;;;;;;;2.93;94.66;100803.16;1736364;81;21431;-37
2021/01/07 08:37:17;;;;;;;35.25;21.60;;;;;;;2.96;94.63;100804.49;1737957;82;21414;-36
2021/01/07 08:39:44;;;;;;;11.88;8.13;;;;;;;2.98;94.62;100802.83;1735861;82;21016;-36
2021/01/07 08:42:14;;;;;;;10.40;7.65;;;;;;;3.01;94.66;100800.32;1735836;82;20988;-37
2021/01/07 08:44:42;;;;;;;53.08;28.45;;;;;;;3.05;94.66;100796.98;1735963;82;21008;-36
2021/01/07 08:47:25;;;;;;;16.02;9.85;;;;;;;3.09;94.72;100791.08;1735955;82;20928;-37
2021/01/07 08:50:19;;;;;;;10.53;6.78;;;;;;;3.13;94.80;100793.28;1735830;82;22726;-38
2021/01/07 08:52:54;;;;;;;18.05;8.33;;;;;;;3.20;94.88;100790.42;1735503;82;20932;-36
2021/01/07 08:55:51;;;;;;;12.18;6.70;;;;;;;3.26;94.90;100777.72;1736013;82;20889;-38
2021/01/07 08:58:24;;;;;;;;;;;;;;;3.32;94.91;100783.38;1738505;82;20952;-36
2021/01/07 09:00:53;;;;;;;7.17;6.47;;;;;;;3.38;94.94;100777.91;1735718;82;20130;-36
2021/01/07 09:03:22;;;;;;;10.10;7.00;;;;;;;3.43;95.00;100760.08;1735860;82;22246;-36
2021/01/07 09:05:53;;;;;;;15.32;9.85;;;;;;;3.50;95.03;100751.66;1735952;82;21383;-36
2021/01/07 09:08:23;;;;;;;13.05;8.75;;;;;;;3.56;95.02;100754.73;1707169;82;20936;-37
2021/01/07 09:10:52;;;;;;;13.40;7.92;;;;;;;3.59;95.04;100746.69;1735834;81;20920;-36
2021/01/07 09:13:25;;;;;;;11.53;7.17;;;;;;;3.67;95.04;100744.66;1735919;82;20968;-37
2021/01/07 09:15:53;;;;;;;8.98;6.97;;;;;;;3.76;94.99;100737.09;1735875;82;21201;-37
2021/01/07 09:18:21;;;;;;;10.55;8.08;;;;;;;3.84;94.98;100726.96;1664777;82;21110;-37
2021/01/07 09:20:50;;;;;;;12.18;7.90;;;;;;;3.85;94.96;100726.13;1735929;82;20992;-36
2021/01/07 09:23:18;;;;;;;7.62;6.83;;;;;;;3.89;94.94;100720.20;1735868;81;20940;-37
2021/01/07 09:25:47;;;;;;;9.68;6.67;;;;;;;3.94;94.89;100710.02;1735808;82;20988;-37
2021/01/07 09:28:15;;;;;;;8.23;7.35;;;;;;;3.96;94.82;100714.73;1735832;82;21086;-37
2021/01/07 09:30:43;;;;;;;15.68;10.35;;;;;;;3.98;94.86;100702.81;1735775;82;20952;-37
2021/01/07 09:33:11;;;;;;;16.00;11.38;;;;;;;4.01;94.90;100693.47;1735867;82;21041;-36
2021/01/07 09:35:39;;;;;;;19.32;11.75;;;;;;;4.06;94.91;100691.37;1737262;81;20928;-36
2021/01/07 09:38:07;;;;;;;20.60;13.25;;;;;;;4.13;94.90;100679.08;1749883;82;21110;-37
2021/01/07 09:40:36;;;;;;;12.82;10.30;;;;;;;4.15;94.91;100685.08;1749773;82;21264;-37
2021/01/07 09:43:04;;;;;;;13.32;9.38;;;;;;;4.21;95.21;100675.33;1749812;82;21054;-36
2021/01/07 09:45:32;;;;;;;12.07;8.60;;;;;;;4.21;95.21;100675.33;1749894;82;20943;-36
2021/01/07 09:48:00;;;;;;;11.55;7.12;;;;;;;4.25;94.93;100665.14;1749859;80;20940;-37
2021/01/07 09:50:28;;;;;;;8.75;7.28;;;;;;;4.29;94.92;100650.22;1749726;82;20931;-38
2021/01/07 09:52:57;;;;;;;12.05;7.25;;;;;;;4.33;94.95;100651.53;1749900;82;21277;-38
2021/01/07 09:55:26;;;;;;;12.93;8.00;;;;;;;4.36;94.95;100642.59;1749833;81;20998;-37
2021/01/07 09:57:57;;;;;;;11.05;7.42;;;;;;;4.40;94.94;100637.92;1749872;82;21055;-38
2021/01/07 10:00:24;;;;;;;9.18;7.25;;;;;;;4.45;94.90;100624.76;1749870;82;21337;-37
2021/01/07 10:02:52;;;;;;;8.78;7.47;;;;;;;4.47;94.87;100619.22;1749864;82;21427;-37
2021/01/07 10:05:21;;;;;;;10.70;7.60;;;;;;;4.48;94.85;100600.43;1749884;82;22564;-37
2021/01/07 10:07:50;;;;;;;15.63;7.75;;;;;;;4.50;94.77;100596.17;1749712;82;20963;-37
2021/01/07 10:10:19;;;;;;;10.63;7.15;;;;;;;4.54;94.70;100613.30;1749808;82;21471;-39
2021/01/07 10:12:47;;;;;;;12.37;7.58;;;;;;;4.54;94.70;100613.30;1749892;82;21015;-37
2021/01/07 10:15:16;;;;;;;12.28;8.10;;;;;;;4.56;94.74;100605.19;1749810;82;20979;-39
2021/01/07 10:17:44;;;;;;;11.28;7.87;;;;;;;4.58;94.70;100590.67;1749939;82;22249;-38
2021/01/07 10:20:13;;;;;;;10.90;6.90;;;;;;;4.57;94.63;100597.94;1749761;82;21054;-38
2021/01/07 10:22:41;;;;;;;11.10;7.25;;;;;;;4.57;94.56;100594.53;1749871;82;20919;-36
2021/01/07 10:25:12;;;;;;;11.15;8.33;;;;;;;4.56;94.54;100585.96;1749760;82;21274;-38
2021/01/07 10:27:40;;;;;;;10.72;7.37;;;;;;;4.56;94.55;100578.27;1749865;82;20928;-37
2021/01/07 10:30:11;;;;;;;9.75;6.90;;;;;;;4.56;94.53;100571.86;1749794;81;21376;-38
2021/01/07 10:32:40;;;;;;;11.22;7.55;;;;;;;4.58;94.52;100562.91;1749733;82;20900;-38
2021/01/07 10:35:10;;;;;;;17.60;9.98;;;;;;;4.58;94.52;100559.06;1749849;82;21045;-37
2021/01/07 10:37:38;;;;;;;23.42;12.40;;;;;;;4.58;94.50;100549.66;1749762;81;21003;-37
2021/01/07 10:40:08;;;;;;;21.50;10.70;;;;;;;4.57;94.51;100549.22;1722590;82;21002;-36
2021/01/07 10:42:36;;;;;;;15.45;9.28;;;;;;;4.58;94.46;100537.27;1749974;82;22164;-37
2021/01/07 10:45:08;;;;;;;14.38;8.65;;;;;;;4.60;94.48;100536.42;1749794;82;21149;-38
2021/01/07 10:48:24;;;;;;;12.75;8.55;;;;;;;4.66;94.49;100516.78;1816138;79;22591;-38
2021/01/07 10:50:53;;;;;;;10.63;8.23;;;;;;;4.60;94.45;100533.85;1789388;80;21433;-35
2021/01/07 10:53:43;;;;;;;14.15;9.75;;;;;;;4.61;94.39;100524.47;1789336;80;21330;-37
2021/01/07 10:56:16;;;;;;;11.90;8.15;;;;;;;4.59;94.33;100514.63;1788974;80;20943;-37
2021/01/07 10:59:29;;;;;;;11.38;7.55;;;;;;;4.58;94.31;100511.19;1789186;80;20951;-37
2021/01/07 11:02:33;;;;;;;10.40;7.17;;;;;;;4.60;94.31;100513.78;1782123;80;20970;-35
2021/01/07 11:05:13;;;;;;;11.65;7.30;;;;;;;4.55;94.30;100500.08;1789223;80;21081;-36
2021/01/07 11:07:46;;;;;;;9.63;6.58;;;;;;;4.54;94.24;100495.77;1789153;80;21282;-37
2021/01/07 11:10:15;;;;;;;14.85;7.55;;;;;;;4.53;94.26;100486.36;1789125;80;21050;-38
2021/01/07 11:12:59;;;;;;;13.08;7.50;;;;;;;4.54;94.27;100479.09;1789289;80;20919;-37
2021/01/07 11:15:29;;;;;;;14.43;7.03;;;;;;;4.52;94.25;100485.52;1789135;80;20987;-37
2021/01/07 11:18:13;;;;;;;11.05;7.37;;;;;;;4.52;94.30;100475.26;1789288;80;21501;-36
2021/01/07 11:20:44;;;;;;;10.65;7.00;;;;;;;4.54;94.27;100466.28;1789243;80;20899;-37
2021/01/07 11:23:12;;;;;;;11.40;7.90;;;;;;;4.54;94.27;100456.90;1789203;80;21018;-37
2021/01/07 11:25:41;;;;;;;9.33;7.10;;;;;;;4.54;94.28;100451.77;1789243;80;20939;-36
2021/01/07 11:28:09;;;;;;;11.55;7.95;;;;;;;4.57;94.33;100450.95;1789168;80;20998;-37
2021/01/07 11:30:37;;;;;;;15.68;8.95;;;;;;;4.56;94.27;100435.97;1758891;80;20991;-37
2021/01/07 11:33:05;;;;;;;13.05;7.47;;;;;;;4.58;94.21;100427.86;1789325;80;21367;-37
2021/01/07 11:35:34;;;;;;;8.98;6.62;;;;;;;4.58;94.18;100430.86;1789172;80;20939;-37
2021/01/07 11:38:04;;;;;;;8.73;7.00;;;;;;;4.58;94.18;100414.20;1789178;80;21058;-35
2021/01/07 11:40:52;;;;;;;13.95;7.87;;;;;;;4.57;94.18;100406.08;1789153;80;20998;-37